sensor_id;sensor_type;location;lat;lon;timestamp;P1;durP1;ratioP1;P2;durP2;ratioP2
31424;SDS011;18054;51.572;7.372;2023-11-21T00:00:52;50.70;;;20.92;;
31424;SDS011;18054;51.572;7.372;2023-11-21T00:03:19;43.28;;;18.58;;
31424;SDS011;18054;51.572;7.372;2023-11-21T00:05:50;42.50;;;19.88;;
31424;SDS011;18054;51.572;7.372;2023-11-21T00:08:18;57.83;;;22.92;;
31424;SDS011;18054;51.572;7.372;2023-11-21T00:10:47;65.55;;;20.98;;
31424;SDS011;18054;51.572;7.372;2023-11-21T00:13:15;50.85;;;22.75;;
31424;SDS011;18054;51.572;7.372;2023-11-21T00:15:44;57.50;;;25.58;;
31424;SDS011;18054;51.572;7.372;2023-11-21T00:18:11;58.47;;;22.90;;
31424;SDS011;18054;51.572;7.372;2023-11-21T00:20:40;53.65;;;20.70;;
31424;SDS011;18054;51.572;7.372;2023-11-21T00:23:08;42.05;;;19.42;;
31424;SDS011;18054;51.572;7.372;2023-11-21T00:28:04;48.97;;;20.55;;
31424;SDS011;18054;51.572;7.372;2023-11-21T00:30:32;58.10;;;20.83;;
31424;SDS011;18054;51.572;7.372;2023-11-21T00:35:27;45.42;;;20.75;;
31424;SDS011;18054;51.572;7.372;2023-11-21T00:37:55;50.85;;;21.20;;
31424;SDS011;18054;51.572;7.372;2023-11-21T00:40:24;50.55;;;20.58;;
31424;SDS011;18054;51.572;7.372;2023-11-21T00:42:52;52.47;;;19.88;;
31424;SDS011;18054;51.572;7.372;2023-11-21T00:45:21;54.63;;;21.65;;
31424;SDS011;18054;51.572;7.372;2023-11-21T00:47:48;50.22;;;22.10;;
31424;SDS011;18054;51.572;7.372;2023-11-21T00:50:16;45.42;;;20.90;;
31424;SDS011;18054;51.572;7.372;2023-11-21T00:52:43;52.72;;;21.30;;
31424;SDS011;18054;51.572;7.372;2023-11-21T00:55:11;49.10;;;20.25;;
31424;SDS011;18054;51.572;7.372;2023-11-21T00:57:39;42.33;;;18.17;;
31424;SDS011;18054;51.572;7.372;2023-11-21T01:02:35;45.33;;;19.48;;
31424;SDS011;18054;51.572;7.372;2023-11-21T01:05:03;40.08;;;19.17;;
31424;SDS011;18054;51.572;7.372;2023-11-21T01:07:31;51.30;;;20.00;;
31424;SDS011;18054;51.572;7.372;2023-11-21T01:09:58;44.67;;;19.38;;
31424;SDS011;18054;51.572;7.372;2023-11-21T01:12:26;57.42;;;21.50;;
31424;SDS011;18054;51.572;7.372;2023-11-21T01:14:54;45.47;;;19.20;;
31424;SDS011;18054;51.572;7.372;2023-11-21T01:17:21;37.63;;;18.10;;
31424;SDS011;18054;51.572;7.372;2023-11-21T01:19:52;49.75;;;19.27;;
31424;SDS011;18054;51.572;7.372;2023-11-21T01:22:19;42.70;;;20.35;;
31424;SDS011;18054;51.572;7.372;2023-11-21T01:24:52;46.95;;;18.00;;
31424;SDS011;18054;51.572;7.372;2023-11-21T01:27:20;48.70;;;19.95;;
31424;SDS011;18054;51.572;7.372;2023-11-21T01:29:48;50.92;;;17.70;;
31424;SDS011;18054;51.572;7.372;2023-11-21T01:32:15;42.40;;;17.40;;
31424;SDS011;18054;51.572;7.372;2023-11-21T01:34:43;47.30;;;19.40;;
31424;SDS011;18054;51.572;7.372;2023-11-21T01:37:12;46.80;;;19.33;;
31424;SDS011;18054;51.572;7.372;2023-11-21T01:39:40;37.70;;;18.52;;
31424;SDS011;18054;51.572;7.372;2023-11-21T01:42:07;34.08;;;16.30;;
31424;SDS011;18054;51.572;7.372;2023-11-21T01:44:35;41.65;;;16.05;;
31424;SDS011;18054;51.572;7.372;2023-11-21T01:47:03;45.00;;;18.65;;
31424;SDS011;18054;51.572;7.372;2023-11-21T01:49:31;45.53;;;17.75;;
31424;SDS011;18054;51.572;7.372;2023-11-21T01:51:59;49.90;;;16.83;;
31424;SDS011;18054;51.572;7.372;2023-11-21T01:54:28;37.08;;;16.40;;
31424;SDS011;18054;51.572;7.372;2023-11-21T01:56:57;38.28;;;15.27;;
31424;SDS011;18054;51.572;7.372;2023-11-21T01:59:29;37.72;;;16.27;;
31424;SDS011;18054;51.572;7.372;2023-11-21T02:02:00;41.17;;;17.50;;
31424;SDS011;18054;51.572;7.372;2023-11-21T02:04:28;46.58;;;17.92;;
31424;SDS011;18054;51.572;7.372;2023-11-21T02:06:56;46.50;;;17.65;;
31424;SDS011;18054;51.572;7.372;2023-11-21T02:09:24;39.50;;;15.65;;
31424;SDS011;18054;51.572;7.372;2023-11-21T02:11:54;32.97;;;14.93;;
31424;SDS011;18054;51.572;7.372;2023-11-21T02:14:24;33.15;;;15.90;;
31424;SDS011;18054;51.572;7.372;2023-11-21T02:16:53;39.35;;;16.58;;
31424;SDS011;18054;51.572;7.372;2023-11-21T02:19:21;39.97;;;14.85;;
31424;SDS011;18054;51.572;7.372;2023-11-21T02:21:52;37.05;;;15.57;;
31424;SDS011;18054;51.572;7.372;2023-11-21T02:24:21;37.95;;;17.10;;
31424;SDS011;18054;51.572;7.372;2023-11-21T02:26:49;35.10;;;16.85;;
31424;SDS011;18054;51.572;7.372;2023-11-21T02:29:17;53.63;;;18.17;;
31424;SDS011;18054;51.572;7.372;2023-11-21T02:31:50;41.97;;;18.42;;
31424;SDS011;18054;51.572;7.372;2023-11-21T02:34:18;43.72;;;18.00;;
31424;SDS011;18054;51.572;7.372;2023-11-21T02:36:46;35.97;;;16.73;;
31424;SDS011;18054;51.572;7.372;2023-11-21T02:39:15;34.13;;;16.15;;
31424;SDS011;18054;51.572;7.372;2023-11-21T02:44:12;40.30;;;15.73;;
31424;SDS011;18054;51.572;7.372;2023-11-21T02:46:40;42.83;;;16.77;;
31424;SDS011;18054;51.572;7.372;2023-11-21T02:49:07;46.50;;;17.25;;
31424;SDS011;18054;51.572;7.372;2023-11-21T02:51:36;40.22;;;15.95;;
31424;SDS011;18054;51.572;7.372;2023-11-21T02:54:05;39.92;;;16.13;;
31424;SDS011;18054;51.572;7.372;2023-11-21T02:56:34;45.20;;;14.80;;
31424;SDS011;18054;51.572;7.372;2023-11-21T02:59:02;38.40;;;16.90;;
31424;SDS011;18054;51.572;7.372;2023-11-21T03:01:31;38.08;;;15.25;;
31424;SDS011;18054;51.572;7.372;2023-11-21T03:03:58;44.22;;;17.73;;
31424;SDS011;18054;51.572;7.372;2023-11-21T03:06:26;31.60;;;15.35;;
31424;SDS011;18054;51.572;7.372;2023-11-21T03:08:53;39.60;;;13.88;;
31424;SDS011;18054;51.572;7.372;2023-11-21T03:11:21;34.42;;;13.82;;
31424;SDS011;18054;51.572;7.372;2023-11-21T03:13:48;37.92;;;16.17;;
31424;SDS011;18054;51.572;7.372;2023-11-21T03:16:17;35.58;;;15.57;;
31424;SDS011;18054;51.572;7.372;2023-11-21T03:18:47;42.60;;;15.13;;
31424;SDS011;18054;51.572;7.372;2023-11-21T03:21:14;30.70;;;14.10;;
31424;SDS011;18054;51.572;7.372;2023-11-21T03:23:42;31.90;;;14.52;;
31424;SDS011;18054;51.572;7.372;2023-11-21T03:26:11;40.38;;;13.48;;
31424;SDS011;18054;51.572;7.372;2023-11-21T03:28:39;29.27;;;13.10;;
31424;SDS011;18054;51.572;7.372;2023-11-21T03:31:07;36.78;;;14.93;;
31424;SDS011;18054;51.572;7.372;2023-11-21T03:33:35;35.80;;;14.40;;
31424;SDS011;18054;51.572;7.372;2023-11-21T03:36:04;34.78;;;15.00;;
31424;SDS011;18054;51.572;7.372;2023-11-21T03:38:34;41.45;;;15.50;;
31424;SDS011;18054;51.572;7.372;2023-11-21T03:41:01;33.20;;;14.05;;
31424;SDS011;18054;51.572;7.372;2023-11-21T03:43:29;47.75;;;15.00;;
31424;SDS011;18054;51.572;7.372;2023-11-21T03:45:56;56.95;;;13.02;;
31424;SDS011;18054;51.572;7.372;2023-11-21T03:48:24;35.78;;;13.57;;
31424;SDS011;18054;51.572;7.372;2023-11-21T03:50:51;31.48;;;12.45;;
31424;SDS011;18054;51.572;7.372;2023-11-21T03:53:20;41.70;;;14.63;;
31424;SDS011;18054;51.572;7.372;2023-11-21T03:55:47;35.20;;;13.65;;
31424;SDS011;18054;51.572;7.372;2023-11-21T04:00:43;34.00;;;14.98;;
31424;SDS011;18054;51.572;7.372;2023-11-21T04:03:11;32.42;;;14.38;;
31424;SDS011;18054;51.572;7.372;2023-11-21T04:05:40;24.63;;;12.75;;
31424;SDS011;18054;51.572;7.372;2023-11-21T04:08:08;33.90;;;14.35;;
31424;SDS011;18054;51.572;7.372;2023-11-21T04:10:37;35.80;;;14.60;;
31424;SDS011;18054;51.572;7.372;2023-11-21T04:13:06;36.55;;;14.55;;
31424;SDS011;18054;51.572;7.372;2023-11-21T04:15:33;33.78;;;12.77;;
31424;SDS011;18054;51.572;7.372;2023-11-21T04:18:01;41.95;;;13.23;;
31424;SDS011;18054;51.572;7.372;2023-11-21T04:20:29;41.97;;;14.60;;
31424;SDS011;18054;51.572;7.372;2023-11-21T04:22:56;41.58;;;14.07;;
31424;SDS011;18054;51.572;7.372;2023-11-21T04:25:24;32.25;;;14.13;;
31424;SDS011;18054;51.572;7.372;2023-11-21T04:27:53;33.90;;;13.32;;
31424;SDS011;18054;51.572;7.372;2023-11-21T04:30:20;35.83;;;13.35;;
31424;SDS011;18054;51.572;7.372;2023-11-21T04:32:48;37.45;;;14.10;;
31424;SDS011;18054;51.572;7.372;2023-11-21T04:35:17;36.22;;;13.73;;
31424;SDS011;18054;51.572;7.372;2023-11-21T04:37:44;31.30;;;15.07;;
31424;SDS011;18054;51.572;7.372;2023-11-21T04:40:12;37.15;;;13.50;;
31424;SDS011;18054;51.572;7.372;2023-11-21T04:42:39;37.58;;;14.13;;
31424;SDS011;18054;51.572;7.372;2023-11-21T04:45:09;33.67;;;14.98;;
31424;SDS011;18054;51.572;7.372;2023-11-21T04:47:39;30.83;;;14.77;;
31424;SDS011;18054;51.572;7.372;2023-11-21T04:50:06;37.97;;;15.90;;
31424;SDS011;18054;51.572;7.372;2023-11-21T04:52:34;35.83;;;14.32;;
31424;SDS011;18054;51.572;7.372;2023-11-21T04:55:01;35.85;;;15.27;;
31424;SDS011;18054;51.572;7.372;2023-11-21T04:57:29;48.33;;;16.02;;
31424;SDS011;18054;51.572;7.372;2023-11-21T04:59:57;39.38;;;13.93;;
31424;SDS011;18054;51.572;7.372;2023-11-21T05:02:26;37.22;;;15.57;;
31424;SDS011;18054;51.572;7.372;2023-11-21T05:05:01;55.42;;;18.73;;
31424;SDS011;18054;51.572;7.372;2023-11-21T05:07:30;72.60;;;22.08;;
31424;SDS011;18054;51.572;7.372;2023-11-21T05:09:58;67.60;;;27.73;;
31424;SDS011;18054;51.572;7.372;2023-11-21T05:12:25;71.35;;;29.13;;
31424;SDS011;18054;51.572;7.372;2023-11-21T05:14:53;75.72;;;30.55;;
31424;SDS011;18054;51.572;7.372;2023-11-21T05:17:21;78.70;;;33.67;;
31424;SDS011;18054;51.572;7.372;2023-11-21T05:19:51;72.72;;;31.77;;
31424;SDS011;18054;51.572;7.372;2023-11-21T05:22:18;72.53;;;31.05;;
31424;SDS011;18054;51.572;7.372;2023-11-21T05:24:46;67.05;;;30.95;;
31424;SDS011;18054;51.572;7.372;2023-11-21T05:27:14;58.97;;;24.10;;
31424;SDS011;18054;51.572;7.372;2023-11-21T05:29:42;49.88;;;17.67;;
31424;SDS011;18054;51.572;7.372;2023-11-21T05:32:09;40.13;;;18.10;;
31424;SDS011;18054;51.572;7.372;2023-11-21T05:34:37;42.10;;;17.20;;
31424;SDS011;18054;51.572;7.372;2023-11-21T05:37:06;45.28;;;18.15;;
31424;SDS011;18054;51.572;7.372;2023-11-21T05:39:34;32.45;;;15.90;;
31424;SDS011;18054;51.572;7.372;2023-11-21T05:42:02;38.40;;;15.32;;
31424;SDS011;18054;51.572;7.372;2023-11-21T05:46:57;52.88;;;18.42;;
31424;SDS011;18054;51.572;7.372;2023-11-21T05:49:25;46.28;;;18.48;;
31424;SDS011;18054;51.572;7.372;2023-11-21T05:54:22;54.00;;;19.77;;
31424;SDS011;18054;51.572;7.372;2023-11-21T05:56:50;45.17;;;19.75;;
31424;SDS011;18054;51.572;7.372;2023-11-21T05:59:17;48.33;;;21.58;;
31424;SDS011;18054;51.572;7.372;2023-11-21T06:01:49;61.20;;;22.25;;
31424;SDS011;18054;51.572;7.372;2023-11-21T06:04:16;49.30;;;20.90;;
31424;SDS011;18054;51.572;7.372;2023-11-21T06:06:45;47.00;;;20.73;;
31424;SDS011;18054;51.572;7.372;2023-11-21T06:09:12;52.38;;;21.17;;
31424;SDS011;18054;51.572;7.372;2023-11-21T06:11:41;46.63;;;19.25;;
31424;SDS011;18054;51.572;7.372;2023-11-21T06:14:08;52.40;;;20.55;;
31424;SDS011;18054;51.572;7.372;2023-11-21T06:16:37;40.40;;;19.30;;
31424;SDS011;18054;51.572;7.372;2023-11-21T06:19:06;48.35;;;19.85;;
31424;SDS011;18054;51.572;7.372;2023-11-21T06:21:34;50.08;;;20.65;;
31424;SDS011;18054;51.572;7.372;2023-11-21T06:24:01;56.50;;;22.63;;
31424;SDS011;18054;51.572;7.372;2023-11-21T06:26:29;60.97;;;22.92;;
31424;SDS011;18054;51.572;7.372;2023-11-21T06:28:59;47.03;;;21.08;;
31424;SDS011;18054;51.572;7.372;2023-11-21T06:31:27;48.38;;;20.05;;
31424;SDS011;18054;51.572;7.372;2023-11-21T06:33:55;49.55;;;19.23;;
31424;SDS011;18054;51.572;7.372;2023-11-21T06:36:23;46.10;;;20.75;;
31424;SDS011;18054;51.572;7.372;2023-11-21T06:38:50;33.90;;;17.10;;
31424;SDS011;18054;51.572;7.372;2023-11-21T06:41:17;48.47;;;20.95;;
31424;SDS011;18054;51.572;7.372;2023-11-21T06:43:45;44.22;;;18.40;;
31424;SDS011;18054;51.572;7.372;2023-11-21T06:46:15;45.83;;;19.33;;
31424;SDS011;18054;51.572;7.372;2023-11-21T06:48:43;50.08;;;20.83;;
31424;SDS011;18054;51.572;7.372;2023-11-21T06:51:10;54.83;;;20.17;;
31424;SDS011;18054;51.572;7.372;2023-11-21T06:53:39;45.03;;;20.63;;
31424;SDS011;18054;51.572;7.372;2023-11-21T06:58:34;40.40;;;19.08;;
31424;SDS011;18054;51.572;7.372;2023-11-21T07:01:02;53.08;;;19.58;;
31424;SDS011;18054;51.572;7.372;2023-11-21T07:03:30;44.88;;;19.65;;
31424;SDS011;18054;51.572;7.372;2023-11-21T07:05:58;44.40;;;19.73;;
31424;SDS011;18054;51.572;7.372;2023-11-21T07:08:26;34.30;;;18.77;;
31424;SDS011;18054;51.572;7.372;2023-11-21T07:10:56;44.63;;;18.13;;
31424;SDS011;18054;51.572;7.372;2023-11-21T07:13:23;47.13;;;18.00;;
31424;SDS011;18054;51.572;7.372;2023-11-21T07:15:52;40.70;;;18.33;;
31424;SDS011;18054;51.572;7.372;2023-11-21T07:18:20;45.60;;;19.15;;
31424;SDS011;18054;51.572;7.372;2023-11-21T07:20:50;42.65;;;18.33;;
31424;SDS011;18054;51.572;7.372;2023-11-21T07:23:18;66.78;;;19.65;;
31424;SDS011;18054;51.572;7.372;2023-11-21T07:25:45;42.85;;;19.77;;
31424;SDS011;18054;51.572;7.372;2023-11-21T07:28:13;43.50;;;18.45;;
31424;SDS011;18054;51.572;7.372;2023-11-21T07:30:41;43.13;;;19.40;;
31424;SDS011;18054;51.572;7.372;2023-11-21T07:33:09;55.58;;;22.20;;
31424;SDS011;18054;51.572;7.372;2023-11-21T07:35:36;45.22;;;19.85;;
31424;SDS011;18054;51.572;7.372;2023-11-21T07:38:05;51.53;;;19.60;;
31424;SDS011;18054;51.572;7.372;2023-11-21T07:40:33;52.05;;;19.40;;
31424;SDS011;18054;51.572;7.372;2023-11-21T07:43:00;36.58;;;17.48;;
31424;SDS011;18054;51.572;7.372;2023-11-21T07:45:28;50.25;;;19.02;;
31424;SDS011;18054;51.572;7.372;2023-11-21T07:47:55;49.17;;;20.45;;
31424;SDS011;18054;51.572;7.372;2023-11-21T07:50:23;44.97;;;19.55;;
31424;SDS011;18054;51.572;7.372;2023-11-21T07:52:50;50.28;;;19.40;;
31424;SDS011;18054;51.572;7.372;2023-11-21T07:55:19;39.97;;;18.35;;
31424;SDS011;18054;51.572;7.372;2023-11-21T07:57:47;39.83;;;18.52;;
31424;SDS011;18054;51.572;7.372;2023-11-21T08:00:15;37.42;;;19.45;;
31424;SDS011;18054;51.572;7.372;2023-11-21T08:02:42;44.97;;;18.05;;
31424;SDS011;18054;51.572;7.372;2023-11-21T08:05:12;43.85;;;18.77;;
31424;SDS011;18054;51.572;7.372;2023-11-21T08:07:50;42.10;;;17.60;;
31424;SDS011;18054;51.572;7.372;2023-11-21T08:10:19;35.30;;;16.92;;
31424;SDS011;18054;51.572;7.372;2023-11-21T08:12:47;50.15;;;18.13;;
31424;SDS011;18054;51.572;7.372;2023-11-21T08:15:16;42.80;;;17.42;;
31424;SDS011;18054;51.572;7.372;2023-11-21T08:17:44;38.50;;;15.48;;
31424;SDS011;18054;51.572;7.372;2023-11-21T08:20:11;38.30;;;16.58;;
31424;SDS011;18054;51.572;7.372;2023-11-21T08:22:43;40.08;;;16.98;;
31424;SDS011;18054;51.572;7.372;2023-11-21T08:25:11;39.25;;;17.92;;
31424;SDS011;18054;51.572;7.372;2023-11-21T08:30:08;34.33;;;16.80;;
31424;SDS011;18054;51.572;7.372;2023-11-21T08:32:35;42.83;;;17.15;;
31424;SDS011;18054;51.572;7.372;2023-11-21T08:35:03;46.10;;;18.10;;
31424;SDS011;18054;51.572;7.372;2023-11-21T08:37:31;38.92;;;16.65;;
31424;SDS011;18054;51.572;7.372;2023-11-21T08:40:02;41.63;;;17.48;;
31424;SDS011;18054;51.572;7.372;2023-11-21T08:42:30;38.60;;;18.02;;
31424;SDS011;18054;51.572;7.372;2023-11-21T08:44:57;38.55;;;18.65;;
31424;SDS011;18054;51.572;7.372;2023-11-21T08:47:26;44.63;;;18.15;;
31424;SDS011;18054;51.572;7.372;2023-11-21T08:49:54;39.13;;;17.90;;
31424;SDS011;18054;51.572;7.372;2023-11-21T08:52:21;41.53;;;19.95;;
31424;SDS011;18054;51.572;7.372;2023-11-21T08:54:50;46.97;;;20.38;;
31424;SDS011;18054;51.572;7.372;2023-11-21T08:57:22;46.50;;;20.10;;
31424;SDS011;18054;51.572;7.372;2023-11-21T08:59:49;51.00;;;19.98;;
31424;SDS011;18054;51.572;7.372;2023-11-21T09:02:21;56.58;;;21.88;;
31424;SDS011;18054;51.572;7.372;2023-11-21T09:04:50;51.47;;;21.92;;
31424;SDS011;18054;51.572;7.372;2023-11-21T09:07:19;51.83;;;21.45;;
31424;SDS011;18054;51.572;7.372;2023-11-21T09:09:46;48.88;;;19.85;;
31424;SDS011;18054;51.572;7.372;2023-11-21T09:12:15;51.78;;;20.35;;
31424;SDS011;18054;51.572;7.372;2023-11-21T09:14:43;55.42;;;21.13;;
31424;SDS011;18054;51.572;7.372;2023-11-21T09:17:11;46.15;;;20.67;;
31424;SDS011;18054;51.572;7.372;2023-11-21T09:19:38;48.20;;;18.98;;
31424;SDS011;18054;51.572;7.372;2023-11-21T09:24:35;41.08;;;19.42;;
31424;SDS011;18054;51.572;7.372;2023-11-21T09:27:04;55.95;;;20.75;;
31424;SDS011;18054;51.572;7.372;2023-11-21T09:29:31;42.95;;;19.38;;
31424;SDS011;18054;51.572;7.372;2023-11-21T09:31:59;57.33;;;22.00;;
31424;SDS011;18054;51.572;7.372;2023-11-21T09:34:27;45.10;;;20.67;;
31424;SDS011;18054;51.572;7.372;2023-11-21T09:39:22;64.30;;;25.00;;
31424;SDS011;18054;51.572;7.372;2023-11-21T09:41:52;61.28;;;24.42;;
31424;SDS011;18054;51.572;7.372;2023-11-21T09:44:22;79.65;;;27.55;;
31424;SDS011;18054;51.572;7.372;2023-11-21T09:46:53;72.47;;;26.65;;
31424;SDS011;18054;51.572;7.372;2023-11-21T09:51:48;64.32;;;26.55;;
31424;SDS011;18054;51.572;7.372;2023-11-21T09:54:17;83.15;;;28.65;;
31424;SDS011;18054;51.572;7.372;2023-11-21T09:56:45;88.78;;;27.67;;
31424;SDS011;18054;51.572;7.372;2023-11-21T09:59:15;81.03;;;27.23;;
31424;SDS011;18054;51.572;7.372;2023-11-21T10:01:42;76.90;;;27.08;;
31424;SDS011;18054;51.572;7.372;2023-11-21T10:04:10;74.05;;;28.02;;
31424;SDS011;18054;51.572;7.372;2023-11-21T10:06:39;84.18;;;28.92;;
31424;SDS011;18054;51.572;7.372;2023-11-21T10:09:08;71.18;;;27.38;;
31424;SDS011;18054;51.572;7.372;2023-11-21T10:11:39;77.80;;;28.55;;
31424;SDS011;18054;51.572;7.372;2023-11-21T10:14:07;86.32;;;28.95;;
31424;SDS011;18054;51.572;7.372;2023-11-21T10:16:37;86.15;;;30.00;;
31424;SDS011;18054;51.572;7.372;2023-11-21T10:19:05;73.03;;;29.88;;
31424;SDS011;18054;51.572;7.372;2023-11-21T10:21:37;83.10;;;29.45;;
31424;SDS011;18054;51.572;7.372;2023-11-21T10:24:06;77.07;;;29.27;;
31424;SDS011;18054;51.572;7.372;2023-11-21T10:29:12;78.20;;;29.88;;
31424;SDS011;18054;51.572;7.372;2023-11-21T10:31:44;77.63;;;27.60;;
31424;SDS011;18054;51.572;7.372;2023-11-21T10:34:15;71.80;;;29.83;;
31424;SDS011;18054;51.572;7.372;2023-11-21T10:36:43;69.97;;;27.98;;
31424;SDS011;18054;51.572;7.372;2023-11-21T10:39:13;84.65;;;29.80;;
31424;SDS011;18054;51.572;7.372;2023-11-21T10:41:43;76.55;;;29.25;;
31424;SDS011;18054;51.572;7.372;2023-11-21T10:44:13;76.60;;;30.08;;
31424;SDS011;18054;51.572;7.372;2023-11-21T10:46:44;74.80;;;29.73;;
31424;SDS011;18054;51.572;7.372;2023-11-21T10:49:16;72.57;;;29.50;;
31424;SDS011;18054;51.572;7.372;2023-11-21T10:51:44;82.88;;;31.55;;
31424;SDS011;18054;51.572;7.372;2023-11-21T10:54:12;75.78;;;30.90;;
31424;SDS011;18054;51.572;7.372;2023-11-21T10:56:39;85.75;;;29.67;;
31424;SDS011;18054;51.572;7.372;2023-11-21T10:59:09;76.15;;;30.58;;
31424;SDS011;18054;51.572;7.372;2023-11-21T11:01:37;84.30;;;28.65;;
31424;SDS011;18054;51.572;7.372;2023-11-21T11:06:33;70.05;;;27.27;;
31424;SDS011;18054;51.572;7.372;2023-11-21T11:09:01;69.63;;;27.13;;
31424;SDS011;18054;51.572;7.372;2023-11-21T11:11:30;60.22;;;24.83;;
31424;SDS011;18054;51.572;7.372;2023-11-21T11:13:57;62.55;;;23.55;;
31424;SDS011;18054;51.572;7.372;2023-11-21T11:16:26;57.22;;;24.27;;
31424;SDS011;18054;51.572;7.372;2023-11-21T11:18:55;50.53;;;21.45;;
31424;SDS011;18054;51.572;7.372;2023-11-21T11:21:25;60.00;;;23.05;;
31424;SDS011;18054;51.572;7.372;2023-11-21T11:24:01;60.38;;;24.30;;
31424;SDS011;18054;51.572;7.372;2023-11-21T11:26:37;53.53;;;23.40;;
31424;SDS011;18054;51.572;7.372;2023-11-21T11:29:11;54.15;;;22.08;;
31424;SDS011;18054;51.572;7.372;2023-11-21T11:31:44;65.07;;;21.73;;
31424;SDS011;18054;51.572;7.372;2023-11-21T11:34:17;57.15;;;20.75;;
31424;SDS011;18054;51.572;7.372;2023-11-21T11:36:49;38.90;;;18.63;;
31424;SDS011;18054;51.572;7.372;2023-11-21T11:39:28;43.95;;;18.23;;
31424;SDS011;18054;51.572;7.372;2023-11-21T11:41:56;39.78;;;18.20;;
31424;SDS011;18054;51.572;7.372;2023-11-21T11:47:13;37.15;;;17.90;;
31424;SDS011;18054;51.572;7.372;2023-11-21T11:49:54;45.80;;;18.00;;
31424;SDS011;18054;51.572;7.372;2023-11-21T11:52:32;37.13;;;16.83;;
31424;SDS011;18054;51.572;7.372;2023-11-21T11:57:30;35.63;;;17.65;;
31424;SDS011;18054;51.572;7.372;2023-11-21T12:00:11;44.17;;;16.55;;
31424;SDS011;18054;51.572;7.372;2023-11-21T12:02:43;37.22;;;16.23;;
31424;SDS011;18054;51.572;7.372;2023-11-21T12:05:11;34.78;;;16.20;;
31424;SDS011;18054;51.572;7.372;2023-11-21T12:07:43;31.42;;;16.45;;
31424;SDS011;18054;51.572;7.372;2023-11-21T12:10:15;29.88;;;15.77;;
31424;SDS011;18054;51.572;7.372;2023-11-21T12:12:46;30.50;;;15.70;;
31424;SDS011;18054;51.572;7.372;2023-11-21T12:15:14;28.85;;;15.90;;
31424;SDS011;18054;51.572;7.372;2023-11-21T12:20:10;32.10;;;14.88;;
31424;SDS011;18054;51.572;7.372;2023-11-21T12:22:42;29.27;;;15.70;;
31424;SDS011;18054;51.572;7.372;2023-11-21T12:25:10;28.20;;;14.98;;
31424;SDS011;18054;51.572;7.372;2023-11-21T12:27:42;28.60;;;13.95;;
31424;SDS011;18054;51.572;7.372;2023-11-21T12:30:13;40.72;;;15.23;;
31424;SDS011;18054;51.572;7.372;2023-11-21T12:32:42;27.90;;;15.00;;
31424;SDS011;18054;51.572;7.372;2023-11-21T12:35:10;32.53;;;15.52;;
31424;SDS011;18054;51.572;7.372;2023-11-21T12:40:06;30.67;;;14.38;;
31424;SDS011;18054;51.572;7.372;2023-11-21T12:42:34;28.40;;;13.88;;
31424;SDS011;18054;51.572;7.372;2023-11-21T12:45:06;28.05;;;13.82;;
31424;SDS011;18054;51.572;7.372;2023-11-21T12:47:35;31.20;;;16.35;;
31424;SDS011;18054;51.572;7.372;2023-11-21T12:50:03;35.72;;;16.73;;
31424;SDS011;18054;51.572;7.372;2023-11-21T12:52:32;31.65;;;15.38;;
31424;SDS011;18054;51.572;7.372;2023-11-21T12:55:00;32.05;;;15.63;;
31424;SDS011;18054;51.572;7.372;2023-11-21T12:57:28;31.02;;;13.70;;
31424;SDS011;18054;51.572;7.372;2023-11-21T12:59:56;36.35;;;15.98;;
31424;SDS011;18054;51.572;7.372;2023-11-21T13:02:25;34.35;;;15.55;;
31424;SDS011;18054;51.572;7.372;2023-11-21T13:04:55;28.48;;;13.27;;
31424;SDS011;18054;51.572;7.372;2023-11-21T13:07:24;35.03;;;13.50;;
31424;SDS011;18054;51.572;7.372;2023-11-21T13:09:52;30.27;;;12.93;;
31424;SDS011;18054;51.572;7.372;2023-11-21T13:12:23;27.40;;;13.40;;
31424;SDS011;18054;51.572;7.372;2023-11-21T13:14:51;28.10;;;13.43;;
31424;SDS011;18054;51.572;7.372;2023-11-21T13:17:19;29.77;;;12.60;;
31424;SDS011;18054;51.572;7.372;2023-11-21T13:19:49;30.90;;;13.20;;
31424;SDS011;18054;51.572;7.372;2023-11-21T13:24:46;29.45;;;11.63;;
31424;SDS011;18054;51.572;7.372;2023-11-21T13:27:14;24.95;;;13.23;;
31424;SDS011;18054;51.572;7.372;2023-11-21T13:29:41;25.00;;;11.95;;
31424;SDS011;18054;51.572;7.372;2023-11-21T13:32:10;27.13;;;12.70;;
31424;SDS011;18054;51.572;7.372;2023-11-21T13:34:38;28.88;;;12.45;;
31424;SDS011;18054;51.572;7.372;2023-11-21T13:37:11;33.42;;;13.38;;
31424;SDS011;18054;51.572;7.372;2023-11-21T13:39:38;29.60;;;11.70;;
31424;SDS011;18054;51.572;7.372;2023-11-21T13:42:12;27.00;;;12.10;;
31424;SDS011;18054;51.572;7.372;2023-11-21T13:44:40;26.70;;;12.23;;
31424;SDS011;18054;51.572;7.372;2023-11-21T13:47:11;27.42;;;12.50;;
31424;SDS011;18054;51.572;7.372;2023-11-21T13:49:38;29.02;;;12.70;;
31424;SDS011;18054;51.572;7.372;2023-11-21T13:52:08;23.05;;;11.27;;
31424;SDS011;18054;51.572;7.372;2023-11-21T13:54:41;27.48;;;11.73;;
31424;SDS011;18054;51.572;7.372;2023-11-21T13:57:09;30.27;;;12.02;;
31424;SDS011;18054;51.572;7.372;2023-11-21T13:59:38;20.02;;;9.90;;
31424;SDS011;18054;51.572;7.372;2023-11-21T14:02:05;23.63;;;11.15;;
31424;SDS011;18054;51.572;7.372;2023-11-21T14:04:44;24.67;;;10.50;;
31424;SDS011;18054;51.572;7.372;2023-11-21T14:07:21;22.73;;;10.95;;
31424;SDS011;18054;51.572;7.372;2023-11-21T14:09:56;23.00;;;9.95;;
31424;SDS011;18054;51.572;7.372;2023-11-21T14:12:24;22.58;;;10.20;;
31424;SDS011;18054;51.572;7.372;2023-11-21T14:14:53;19.90;;;10.32;;
31424;SDS011;18054;51.572;7.372;2023-11-21T14:17:21;22.02;;;10.20;;
31424;SDS011;18054;51.572;7.372;2023-11-21T14:19:50;16.27;;;8.80;;
31424;SDS011;18054;51.572;7.372;2023-11-21T14:22:18;19.27;;;9.45;;
31424;SDS011;18054;51.572;7.372;2023-11-21T14:24:46;17.05;;;8.10;;
31424;SDS011;18054;51.572;7.372;2023-11-21T14:27:16;16.80;;;7.78;;
31424;SDS011;18054;51.572;7.372;2023-11-21T14:29:44;14.07;;;6.72;;
31424;SDS011;18054;51.572;7.372;2023-11-21T14:32:13;12.65;;;5.95;;
31424;SDS011;18054;51.572;7.372;2023-11-21T14:34:42;12.02;;;6.50;;
31424;SDS011;18054;51.572;7.372;2023-11-21T14:37:13;11.27;;;6.35;;
31424;SDS011;18054;51.572;7.372;2023-11-21T14:39:40;14.13;;;5.55;;
31424;SDS011;18054;51.572;7.372;2023-11-21T14:42:11;9.13;;;5.70;;
31424;SDS011;18054;51.572;7.372;2023-11-21T14:44:41;18.27;;;6.22;;
31424;SDS011;18054;51.572;7.372;2023-11-21T14:47:09;24.00;;;6.13;;
31424;SDS011;18054;51.572;7.372;2023-11-21T14:49:43;10.25;;;5.30;;
31424;SDS011;18054;51.572;7.372;2023-11-21T14:52:19;17.70;;;5.53;;
31424;SDS011;18054;51.572;7.372;2023-11-21T14:54:59;10.95;;;5.95;;
31424;SDS011;18054;51.572;7.372;2023-11-21T14:57:41;13.00;;;6.90;;
31424;SDS011;18054;51.572;7.372;2023-11-21T15:00:12;8.38;;;5.97;;
31424;SDS011;18054;51.572;7.372;2023-11-21T15:02:57;10.85;;;6.85;;
31424;SDS011;18054;51.572;7.372;2023-11-21T15:05:27;17.27;;;6.97;;
31424;SDS011;18054;51.572;7.372;2023-11-21T15:07:53;14.93;;;6.88;;
31424;SDS011;18054;51.572;7.372;2023-11-21T15:10:23;18.67;;;6.53;;
31424;SDS011;18054;51.572;7.372;2023-11-21T15:13:04;13.88;;;7.22;;
31424;SDS011;18054;51.572;7.372;2023-11-21T15:15:31;15.77;;;9.27;;
31424;SDS011;18054;51.572;7.372;2023-11-21T15:18:01;17.17;;;8.73;;
31424;SDS011;18054;51.572;7.372;2023-11-21T15:20:30;15.63;;;8.73;;